x

Buzzards Bay, Ma (buzm3) Weather Station

6:00pm - Sun 23rd Jul 2017 All times are EDT. -4 hours from GMT.

  • Wind
    17mph, 18mph gusts
  • Air Temp 68°f
  • Sea Pressure 1011.8mb
  • Buzzards Bay, Ma
  • Buzzards Bay, Ma

More Historic Weather Station data

Upgrade to MSW Pro to gain access to the past 30 days of data for over 8000 Wavebouys and Weather Stations around the globe.

Join Pro

Comparision Forecast

View Surf forecast
   
Sun 07/23 6:00pm 17 18 mph 1011.8mb 68f
5:00pm 18 20 mph 1011.6mb 68f
4:00pm 18 20 mph 1011.5mb 68f
3:00pm 20 21 mph 1011.3mb 69f
2:00pm 17 18 mph 1011.5mb 69f
1:00pm 21 22 mph 1011.2mb 69f
12:00pm 23 24 mph 1010.5mb 69f
11:00am 21 23 mph 1010.4mb 69f
10:00am 24 26 mph 1009.5mb 69f
9:00am 21 23 mph 1008.9mb 69f
8:00am 18 18 mph 1008.2mb 70f
7:00am 3 3 mph 1007.8mb 69f
6:00am 8 8 mph 1007mb 69f
5:00am 7 7 mph 1007mb 71f
4:00am 7 7 mph 1007.2mb 72f
3:00am 8 8 mph 1007.1mb 71f
2:00am 8 8 mph 1007.4mb 71f
1:00am  -  0 mph 1008.2mb 72f
12:00am 7 7 mph 1009mb 72f
Sat 07/22 11:00pm 8 8 mph 1008.9mb 73f
10:00pm 7 7 mph 1009.2mb 72f
9:00pm 7 8 mph 1009.2mb 73f
8:00pm 6 6 mph 1009.4mb 73f
7:00pm 5 6 mph 1009.3mb 73f
6:00pm 6 6 mph 1009.5mb 74f
5:00pm 5 5 mph 1009.6mb 75f
4:00pm 3 3 mph 1010.3mb 74f
3:00pm 5 6 mph 1010.7mb 74f
2:00pm 6 6 mph 1011.2mb 74f
1:00pm 5 5 mph 1011.6mb 74f
12:00pm 6 6 mph 1011.8mb 73f
11:00am  -  1 mph 1011.8mb 75f
10:00am 2 2 mph 1011.7mb 76f
9:00am 7 7 mph 1012mb 73f
8:00am 7 8 mph 1012.1mb 73f
7:00am 7 7 mph 1011.7mb 76f
6:00am 10 10 mph 1010.8mb 74f
5:00am 8 9 mph 1010.7mb 75f
4:00am 11 13 mph 1010.6mb 77f
3:00am 11 13 mph 1010.9mb 74f
2:00am 13 13 mph 1011mb 74f
1:00am 13 14 mph 1011.1mb 71f
12:00am 17 17 mph 1010.8mb 73f
Fri 07/21 11:00pm 18 20 mph 1010.5mb 73f
10:00pm 14 15 mph 1010.6mb 73f
9:00pm 15 15 mph 1010.5mb 73f
8:00pm 18 18 mph 1010.1mb 74f
7:00pm 22 23 mph 1009.9mb 73f
6:00pm 22 23 mph 1009.8mb 74f
5:00pm 23 23 mph 1009.7mb 74f
4:00pm 13 13 mph 1010mb 74f
3:00pm 14 15 mph 1010.2mb 74f
2:00pm 16 16 mph 1010.8mb 73f
1:00pm 15 16 mph 1011.2mb 72f
12:00pm 15 16 mph 1011.6mb 72f
11:00am 13 13 mph 1012mb 72f
10:00am 11 11 mph 1011.9mb 74f
9:00am 14 14 mph 1011.7mb 76f
8:00am 9 9 mph 1011.6mb 74f
7:00am 8 9 mph 1011.2mb 75f
6:00am 9 10 mph 1010.8mb 73f
5:00am 6 7 mph 1010.6mb 70f
4:00am 14 14 mph 1010mb 73f
3:00am 11 13 mph 1010.2mb 73f
2:00am 11 13 mph 1010.4mb 71f
1:00am 7 7 mph 1010.4mb 72f
12:00am 10 10 mph 1010.8mb 72f
Thu 07/20 11:00pm 9 9 mph 1010.8mb 73f
10:00pm 14 14 mph 1010.9mb 74f
9:00pm 18 20 mph 1011mb 74f
8:00pm 21 21 mph 1010.3mb 74f
7:00pm 17 18 mph 1011.2mb 74f
6:00pm 18 20 mph 1011.5mb 74f
5:00pm 18 20 mph 1011.6mb 76f
4:00pm 15 16 mph 1012.2mb 74f
3:00pm 16 16 mph 1012.6mb 75f
2:00pm 15 15 mph 1013.2mb 75f
1:00pm 14 15 mph 1014mb 74f
12:00pm 13 13 mph 1014.5mb 76f
11:00am 13 13 mph 1014.8mb 75f
10:00am 11 11 mph 1015.1mb 73f
9:00am 7 8 mph 1015mb 73f
8:00am 6 6 mph 1015.1mb 74f
7:00am 8 8 mph 1014.7mb 73f
6:00am 10 10 mph 1014.3mb 70f
5:00am 8 8 mph 1014mb 70f
4:00am 8 8 mph 1014.3mb 70f
3:00am 13 13 mph 1014.4mb 71f
2:00am 14 15 mph 1014.8mb 71f
1:00am 16 17 mph 1015.1mb 72f
12:00am 14 16 mph 1015.2mb 71f